createdAt,value
2018-01-31T01:53:09.419Z,13.37
2018-01-31T01:55:36.921Z,13.67
2018-01-31T01:58:04.453Z,16.97
2018-01-31T02:00:31.949Z,16.40
2018-01-31T02:02:59.521Z,20.13
2018-01-31T02:05:27.074Z,12.33
2018-01-31T02:07:54.611Z,15.17
2018-01-31T02:10:22.204Z,13.33
2018-01-31T02:12:49.709Z,20.70
2018-01-31T02:15:17.240Z,14.70
2018-01-31T02:17:44.851Z,14.80
2018-01-31T02:20:12.378Z,15.60
2018-01-31T02:22:39.886Z,14.77
2018-01-31T02:25:07.372Z,13.53
2018-01-31T02:27:34.882Z,15.63
2018-01-31T02:30:02.425Z,11.00
2018-01-31T02:32:29.935Z,14.30
2018-01-31T02:34:57.498Z,13.63
2018-01-31T02:37:25.062Z,10.40
2018-01-31T02:40:01.499Z,12.17
2018-01-31T02:42:29.055Z,13.27
2018-01-31T02:44:56.557Z,14.33
2018-01-31T02:47:24.106Z,19.63
2018-01-31T02:49:51.666Z,11.90
2018-01-31T02:52:19.179Z,13.40
2018-01-31T02:54:46.753Z,14.30
2018-01-31T02:57:14.287Z,12.83
2018-01-31T02:59:41.781Z,7.97
2018-01-31T03:02:09.296Z,15.47
2018-01-31T03:04:36.895Z,13.23
2018-01-31T03:07:04.422Z,10.67
2018-01-31T03:09:32.054Z,10.83
2018-01-31T03:11:59.615Z,10.27
2018-01-31T03:14:27.137Z,12.93
2018-01-31T03:16:54.642Z,11.57
2018-01-31T03:19:22.179Z,12.30
2018-01-31T03:21:49.673Z,13.23
2018-01-31T03:24:17.172Z,8.77
2018-01-31T03:26:44.671Z,11.67
2018-01-31T03:29:12.230Z,11.13
2018-01-31T03:31:39.745Z,8.93
2018-01-31T03:34:07.299Z,11.73
2018-01-31T03:36:34.862Z,8.70
2018-01-31T03:39:02.383Z,12.60
2018-01-31T03:41:29.920Z,15.27
2018-01-31T03:43:57.415Z,12.67
2018-01-31T03:46:24.936Z,11.20
2018-01-31T03:48:52.421Z,10.13
2018-01-31T03:51:19.926Z,11.93
2018-01-31T03:53:47.479Z,11.50
2018-01-31T03:56:15.034Z,13.33
2018-01-31T03:58:42.558Z,9.83
2018-01-31T04:01:10.160Z,10.17
2018-01-31T04:03:37.650Z,9.50
2018-01-31T04:06:05.135Z,13.47
2018-01-31T04:08:32.656Z,12.03
2018-01-31T04:11:00.142Z,8.83
2018-01-31T04:13:27.692Z,9.90
2018-01-31T04:15:55.195Z,10.23
2018-01-31T04:18:22.768Z,13.03
2018-01-31T04:20:50.292Z,8.40
2018-01-31T04:23:17.807Z,10.77
2018-01-31T04:25:45.321Z,12.60
2018-01-31T04:28:12.827Z,8.70
2018-01-31T04:30:40.351Z,13.50
2018-01-31T04:33:07.859Z,10.27
2018-01-31T04:35:35.426Z,9.57
2018-01-31T04:38:02.917Z,10.13
2018-01-31T04:40:30.422Z,10.80
2018-01-31T04:42:57.886Z,8.60
2018-01-31T04:45:25.393Z,13.30
2018-01-31T04:47:52.882Z,9.47
2018-01-31T04:50:20.479Z,9.57
2018-01-31T04:52:47.971Z,9.17
2018-01-31T04:55:15.480Z,10.80
2018-01-31T04:57:42.975Z,8.70
2018-01-31T05:00:10.492Z,8.80
2018-01-31T05:02:38.031Z,8.30
2018-01-31T05:05:05.539Z,8.47
2018-01-31T05:07:33.031Z,9.03
2018-01-31T05:10:00.554Z,11.57
2018-01-31T05:12:28.112Z,8.90
2018-01-31T05:14:55.589Z,8.77
2018-01-31T05:17:23.236Z,10.30
2018-01-31T05:19:50.732Z,8.27
2018-01-31T05:22:18.234Z,11.60
2018-01-31T05:24:47.146Z,9.20
2018-01-31T05:27:14.655Z,9.70
2018-01-31T05:29:42.143Z,13.00
2018-01-31T05:32:09.636Z,9.53
2018-01-31T05:34:37.161Z,10.23
2018-01-31T05:37:04.691Z,10.57
2018-01-31T05:39:32.216Z,11.50
2018-01-31T05:42:00.596Z,10.73
2018-01-31T05:44:28.160Z,11.00
2018-01-31T05:46:55.678Z,11.07
2018-01-31T05:49:23.170Z,7.37
2018-01-31T05:51:50.650Z,8.83
2018-01-31T05:54:18.171Z,8.83
2018-01-31T05:56:45.693Z,7.67
2018-01-31T05:59:13.220Z,9.67
2018-01-31T06:01:40.717Z,8.00
2018-01-31T06:04:08.270Z,7.60
2018-01-31T06:06:35.798Z,12.10
2018-01-31T06:09:03.330Z,10.03
2018-01-31T06:11:30.835Z,9.37
2018-01-31T06:13:58.340Z,9.00
2018-01-31T06:19:23.741Z,9.30
2018-01-31T06:21:51.248Z,8.50
2018-01-31T06:24:18.763Z,10.40
2018-01-31T06:26:46.287Z,8.23
2018-01-31T06:29:13.790Z,9.70
2018-01-31T06:31:41.321Z,8.23
2018-01-31T06:34:08.830Z,9.43
2018-01-31T06:36:36.356Z,9.23
2018-01-31T06:39:03.872Z,12.67
2018-01-31T06:41:31.354Z,12.27
2018-01-31T06:43:58.854Z,9.83
2018-01-31T06:46:26.366Z,11.40
2018-01-31T06:48:53.860Z,9.57
2018-01-31T06:51:21.379Z,10.33
2018-01-31T06:53:48.872Z,11.03
2018-01-31T06:56:16.361Z,9.67
2018-01-31T06:58:43.869Z,9.57
2018-01-31T07:01:11.348Z,10.30
2018-01-31T07:03:38.903Z,11.13
2018-01-31T07:06:06.414Z,10.10
2018-01-31T07:08:33.958Z,9.50
2018-01-31T07:11:01.471Z,9.63
2018-01-31T07:13:29.024Z,10.83
2018-01-31T07:15:56.600Z,10.27
2018-01-31T07:18:24.119Z,11.07
2018-01-31T07:20:51.648Z,12.17
2018-01-31T07:23:19.138Z,9.50
2018-01-31T07:25:46.653Z,10.00
2018-01-31T07:28:14.165Z,9.53
2018-01-31T07:30:41.712Z,8.77
2018-01-31T07:33:09.213Z,10.67
2018-01-31T07:35:36.709Z,9.87
2018-01-31T07:38:04.197Z,9.83
2018-01-31T07:40:31.710Z,9.83
2018-01-31T07:42:59.205Z,10.23
2018-01-31T07:45:26.726Z,9.90
2018-01-31T07:47:54.230Z,13.93
2018-01-31T07:50:21.726Z,10.50
2018-01-31T07:52:49.242Z,10.57
2018-01-31T07:55:16.750Z,9.60
2018-01-31T07:57:44.323Z,10.97
2018-01-31T08:00:11.813Z,11.20
2018-01-31T08:02:39.292Z,9.97
2018-01-31T08:05:06.797Z,9.77
2018-01-31T08:07:34.303Z,9.47
2018-01-31T08:10:01.856Z,8.73
2018-01-31T08:12:29.408Z,8.63
2018-01-31T08:14:56.927Z,8.40
2018-01-31T08:17:24.447Z,9.20
2018-01-31T08:19:51.963Z,8.10
2018-01-31T08:22:19.510Z,6.97
2018-01-31T08:24:47.072Z,9.27
2018-01-31T08:27:14.558Z,7.50
2018-01-31T08:29:42.055Z,6.30
2018-01-31T08:32:09.550Z,6.07
2018-01-31T08:34:37.057Z,5.83
2018-01-31T08:37:04.621Z,5.30
2018-01-31T08:39:32.142Z,5.43
2018-01-31T08:41:59.636Z,4.80
2018-01-31T08:44:27.127Z,5.60
2018-01-31T08:46:54.633Z,4.90
2018-01-31T08:49:22.154Z,4.40
2018-01-31T08:51:49.613Z,4.57
2018-01-31T08:54:17.092Z,4.50
2018-01-31T08:56:45.491Z,4.77
2018-01-31T08:59:12.965Z,5.57
2018-01-31T09:01:41.377Z,4.47
2018-01-31T09:04:08.856Z,4.17
2018-01-31T09:06:36.360Z,4.00
2018-01-31T09:09:03.879Z,3.77
2018-01-31T09:11:31.382Z,3.63
2018-01-31T09:13:58.900Z,3.17
2018-01-31T09:16:26.414Z,3.40
2018-01-31T09:18:53.923Z,2.87
2018-01-31T09:21:21.413Z,4.20
2018-01-31T09:23:48.894Z,3.90
2018-01-31T09:26:16.382Z,2.50
2018-01-31T09:28:43.912Z,3.70
2018-01-31T09:31:11.413Z,2.50
2018-01-31T09:33:38.931Z,2.67
2018-01-31T09:36:06.468Z,2.63
2018-01-31T09:38:33.973Z,3.03
2018-01-31T09:41:01.503Z,3.93
2018-01-31T09:43:29.012Z,2.33
2018-01-31T09:45:56.523Z,2.63
2018-01-31T09:48:24.001Z,3.20
2018-01-31T09:50:51.524Z,3.07
2018-01-31T09:53:19.022Z,5.77
2018-01-31T09:55:46.566Z,4.40
2018-01-31T09:58:14.096Z,3.47
2018-01-31T10:00:41.614Z,8.20
2018-01-31T10:03:09.105Z,5.97
2018-01-31T10:05:36.608Z,9.73
2018-01-31T10:08:04.101Z,3.47
2018-01-31T10:10:31.624Z,3.03
2018-01-31T10:12:59.138Z,3.30
2018-01-31T10:15:26.701Z,3.93
2018-01-31T10:17:54.218Z,3.40
2018-01-31T10:20:21.773Z,4.10
2018-01-31T10:22:49.523Z,2.93
2018-01-31T10:25:17.079Z,3.80
2018-01-31T10:27:44.607Z,5.00
2018-01-31T10:30:12.308Z,2.70
2018-01-31T10:32:39.892Z,2.87
2018-01-31T10:35:07.575Z,5.37
2018-01-31T10:37:35.095Z,2.43
2018-01-31T10:40:02.584Z,3.63
2018-01-31T10:42:30.108Z,2.63
2018-01-31T10:44:57.644Z,4.07
2018-01-31T10:47:25.170Z,3.57
2018-01-31T10:49:52.655Z,4.17
2018-01-31T10:52:20.172Z,2.30
2018-01-31T10:57:29.031Z,1.60
2018-01-31T10:59:42.843Z,2.43
2018-01-31T11:02:10.390Z,2.70
2018-01-31T11:04:37.925Z,2.70
2018-01-31T11:07:05.433Z,2.03
2018-01-31T11:09:32.970Z,2.00
2018-01-31T11:12:00.443Z,2.03
2018-01-31T11:14:27.988Z,2.43
2018-01-31T11:16:55.504Z,5.20
2018-01-31T11:19:23.018Z,3.43
2018-01-31T11:21:50.555Z,3.33
2018-01-31T11:24:18.078Z,2.07
2018-01-31T11:26:45.578Z,2.90
2018-01-31T11:29:13.073Z,3.90
2018-01-31T11:31:40.566Z,1.60
2018-01-31T11:34:08.059Z,6.00
2018-01-31T11:36:35.569Z,3.80
2018-01-31T11:39:03.090Z,4.27
2018-01-31T11:41:30.601Z,2.30
2018-01-31T11:43:58.095Z,2.10
2018-01-31T11:46:25.607Z,2.17
2018-01-31T11:48:53.112Z,2.50
2018-01-31T11:51:20.641Z,2.57
2018-01-31T11:53:48.196Z,2.83
2018-01-31T11:56:15.706Z,2.23
2018-01-31T11:58:43.311Z,1.63
2018-01-31T12:01:10.880Z,1.30
2018-01-31T12:03:38.428Z,1.37
2018-01-31T12:06:05.959Z,1.33
2018-01-31T12:08:33.521Z,1.30
2018-01-31T12:11:01.011Z,3.77
2018-01-31T12:13:40.430Z,2.93
2018-01-31T12:16:19.707Z,1.50
2018-01-31T12:18:59.048Z,1.50
2018-01-31T12:21:38.282Z,1.40
2018-01-31T12:24:17.588Z,1.50
2018-01-31T12:26:53.945Z,3.43
2018-01-31T12:29:34.309Z,1.73
2018-01-31T12:35:16.206Z,1.60
2018-01-31T12:37:55.592Z,2.57
2018-01-31T12:40:22.577Z,1.70
2018-01-31T12:42:49.531Z,3.10
2018-01-31T12:45:16.533Z,6.07
2018-01-31T12:47:55.720Z,1.43
2018-01-31T12:50:35.138Z,1.70
2018-01-31T12:53:14.465Z,2.60
2018-01-31T12:55:53.824Z,1.40
2018-01-31T12:58:33.186Z,1.90
2018-01-31T13:01:12.462Z,2.50
2018-01-31T13:03:51.769Z,1.37
2018-01-31T13:06:30.983Z,2.47
2018-01-31T13:09:10.327Z,1.40
2018-01-31T13:11:50.014Z,1.10
2018-01-31T13:14:29.495Z,1.80
2018-01-31T13:17:08.787Z,1.47
2018-01-31T13:19:48.159Z,3.07
2018-01-31T13:22:27.394Z,1.47
2018-01-31T13:28:20.815Z,1.00
2018-01-31T13:34:09.580Z,4.30
2018-01-31T13:40:08.996Z,1.20
2018-01-31T13:45:51.841Z,1.10
2018-01-31T13:48:31.886Z,1.03
2018-01-31T13:54:18.796Z,1.00
2018-01-31T13:56:58.119Z,1.13
2018-01-31T13:59:37.452Z,0.90
2018-01-31T14:02:16.790Z,1.20
2018-01-31T14:04:56.081Z,1.10
2018-01-31T14:07:35.252Z,1.17
2018-01-31T14:10:14.604Z,1.10
2018-01-31T14:12:53.953Z,1.40
2018-01-31T14:15:33.252Z,1.37
2018-01-31T14:18:12.536Z,1.00
2018-01-31T14:20:51.688Z,1.20
2018-01-31T14:23:30.915Z,0.90
2018-01-31T14:26:11.940Z,1.20
2018-01-31T14:28:51.113Z,2.80
2018-01-31T14:31:30.470Z,1.93
2018-01-31T14:34:09.664Z,1.20
2018-01-31T14:36:36.671Z,1.63
2018-01-31T14:39:03.672Z,1.70
2018-01-31T14:41:30.651Z,5.20
2018-01-31T14:43:57.643Z,2.70
2018-01-31T14:46:24.664Z,2.60
2018-01-31T14:48:51.614Z,3.73
2018-01-31T14:51:18.586Z,2.37
2018-01-31T14:53:45.589Z,2.17
2018-01-31T14:56:12.636Z,2.60
2018-01-31T14:58:39.641Z,5.07
2018-01-31T15:01:06.616Z,2.17
2018-01-31T15:03:33.570Z,5.03
2018-01-31T15:06:00.553Z,1.70
2018-01-31T15:08:27.542Z,4.10
2018-01-31T15:10:54.530Z,1.87
2018-01-31T15:13:21.489Z,2.07
2018-01-31T15:15:48.488Z,2.83
2018-01-31T15:18:15.467Z,2.73
2018-01-31T15:20:42.437Z,2.33
2018-01-31T15:23:09.428Z,1.20
2018-01-31T15:25:36.412Z,2.47
2018-01-31T15:28:03.380Z,1.93
2018-01-31T15:30:30.400Z,1.10
2018-01-31T15:32:57.388Z,1.57
2018-01-31T15:35:24.380Z,2.10
2018-01-31T15:37:51.342Z,1.73
2018-01-31T15:40:18.301Z,5.97
2018-01-31T15:42:45.302Z,2.60
2018-01-31T15:45:12.275Z,1.33
2018-01-31T15:47:39.249Z,1.30
2018-01-31T15:50:06.224Z,1.50
2018-01-31T15:52:33.187Z,2.97
2018-01-31T15:55:00.203Z,2.40
2018-01-31T15:57:27.155Z,1.40
2018-01-31T15:59:54.134Z,1.70
2018-01-31T16:02:21.085Z,1.50
2018-01-31T16:04:48.036Z,1.77
2018-01-31T16:07:15.020Z,1.80
2018-01-31T16:09:42.050Z,1.53
2018-01-31T16:12:09.033Z,2.23
2018-01-31T16:14:36.007Z,3.07
2018-01-31T16:17:03.479Z,1.40
2018-01-31T16:19:42.624Z,1.60
2018-01-31T16:22:10.141Z,1.50
2018-01-31T16:24:37.651Z,1.47
2018-01-31T16:27:10.959Z,1.80
2018-01-31T16:29:50.196Z,1.90
2018-01-31T16:32:29.324Z,3.57
2018-01-31T16:34:57.008Z,2.03
2018-01-31T16:37:24.495Z,1.70
2018-01-31T16:39:52.061Z,2.20
2018-01-31T16:42:19.552Z,1.70
2018-01-31T16:44:47.085Z,1.70
2018-01-31T16:47:18.594Z,1.77
2018-01-31T16:49:46.137Z,2.77
2018-01-31T16:52:13.657Z,1.77
2018-01-31T16:54:41.147Z,1.80
2018-01-31T16:57:08.642Z,3.17
2018-01-31T16:59:36.257Z,1.70
2018-01-31T17:02:03.849Z,2.30
2018-01-31T17:04:31.385Z,1.80
2018-01-31T17:06:59.899Z,1.90
2018-01-31T17:09:27.420Z,2.43
2018-01-31T17:11:54.913Z,2.00
2018-01-31T17:14:22.421Z,2.00
2018-01-31T17:16:49.960Z,1.67
2018-01-31T17:19:17.473Z,2.40
2018-01-31T17:21:45.057Z,2.70
2018-01-31T17:24:12.549Z,3.40
2018-01-31T17:26:40.070Z,1.80
2018-01-31T17:29:07.592Z,1.60
2018-01-31T17:31:35.069Z,2.20
2018-01-31T17:34:02.625Z,1.50
2018-01-31T17:36:30.192Z,2.90
2018-01-31T17:38:57.696Z,1.80
2018-01-31T17:41:25.237Z,1.80
2018-01-31T17:43:53.494Z,1.50
2018-01-31T17:46:21.010Z,1.50
2018-01-31T17:48:48.513Z,1.70
2018-01-31T17:51:16.051Z,1.77
2018-01-31T17:53:43.572Z,1.70
2018-01-31T17:56:11.194Z,1.90
2018-01-31T17:58:38.737Z,1.53
2018-01-31T18:01:06.339Z,3.80
2018-01-31T18:03:33.825Z,1.60
2018-01-31T18:06:01.311Z,1.57
2018-01-31T18:08:28.830Z,1.87
2018-01-31T18:10:56.378Z,1.43
2018-01-31T18:13:23.878Z,1.33
2018-01-31T18:15:51.509Z,1.33
2018-01-31T18:18:19.045Z,3.53
2018-01-31T18:20:46.567Z,1.93
2018-01-31T18:23:14.077Z,1.70
2018-01-31T18:25:41.578Z,1.70
2018-01-31T18:28:09.084Z,1.50
2018-01-31T18:30:36.601Z,1.57
2018-01-31T18:33:04.067Z,1.80
2018-01-31T18:35:31.589Z,3.07
2018-01-31T18:37:59.088Z,1.87
2018-01-31T18:40:26.684Z,3.67
2018-01-31T18:42:54.201Z,4.27
2018-01-31T18:45:21.749Z,4.33
2018-01-31T18:47:49.233Z,3.93
2018-01-31T18:50:17.672Z,2.50
2018-01-31T18:52:45.196Z,3.10
2018-01-31T18:55:12.688Z,5.03
2018-01-31T18:57:40.173Z,2.47
2018-01-31T19:00:07.683Z,3.33
2018-01-31T19:02:35.230Z,3.90
2018-01-31T19:05:02.725Z,3.90
2018-01-31T19:07:30.228Z,3.97
2018-01-31T19:09:57.737Z,2.20
2018-01-31T19:12:25.289Z,4.13
2018-01-31T19:14:52.809Z,3.53
2018-01-31T19:17:20.307Z,4.47
2018-01-31T19:19:47.784Z,3.93
2018-01-31T19:22:15.347Z,2.10
2018-01-31T19:24:42.864Z,6.03
2018-01-31T19:27:10.353Z,5.87
2018-01-31T19:29:37.870Z,5.87
2018-01-31T19:32:05.442Z,6.60
2018-01-31T19:34:32.972Z,5.63
2018-01-31T19:37:00.518Z,3.87
2018-01-31T19:39:28.010Z,1.47
2018-01-31T19:41:55.540Z,1.63
2018-01-31T19:44:23.016Z,1.60
2018-01-31T19:46:50.556Z,2.93
2018-01-31T19:49:18.034Z,2.03
2018-01-31T19:51:45.581Z,1.60
2018-01-31T19:54:13.097Z,1.63
2018-01-31T19:56:40.605Z,2.33
2018-01-31T19:59:08.146Z,1.90
2018-01-31T20:01:35.622Z,3.27
2018-01-31T20:04:03.128Z,2.73
2018-01-31T20:06:30.692Z,1.97
2018-01-31T20:08:58.197Z,1.60
2018-01-31T20:11:25.716Z,1.97
2018-01-31T20:13:53.208Z,1.43
2018-01-31T20:16:20.710Z,1.40
2018-01-31T20:18:48.234Z,2.10
2018-01-31T20:21:15.848Z,2.30
2018-01-31T20:23:43.383Z,1.70
2018-01-31T20:26:10.884Z,1.60
2018-01-31T20:28:38.465Z,2.10
2018-01-31T20:31:05.962Z,1.60
2018-01-31T20:33:33.476Z,2.53
2018-01-31T20:36:01.043Z,1.60
2018-01-31T20:38:28.600Z,2.03
2018-01-31T20:40:56.414Z,1.90
2018-01-31T20:43:23.936Z,1.83
2018-01-31T20:45:51.429Z,1.80
2018-01-31T20:48:18.970Z,1.70
2018-01-31T20:50:46.567Z,1.60
2018-01-31T20:53:14.069Z,2.20
2018-01-31T20:55:41.580Z,2.87
2018-01-31T20:58:09.213Z,2.33
2018-01-31T21:00:36.842Z,1.80
2018-01-31T21:03:04.348Z,1.80
2018-01-31T21:05:32.015Z,1.80
2018-01-31T21:07:59.526Z,1.53
2018-01-31T21:10:27.072Z,1.80
2018-01-31T21:12:54.622Z,1.87
2018-01-31T21:15:22.110Z,1.83
2018-01-31T21:17:49.671Z,1.77
2018-01-31T21:20:17.199Z,1.70
2018-01-31T21:22:44.692Z,1.67
2018-01-31T21:25:12.261Z,2.67
2018-01-31T21:27:39.765Z,2.50
2018-01-31T21:30:07.306Z,1.87
2018-01-31T21:32:34.908Z,2.07
2018-01-31T21:35:02.423Z,1.90
2018-01-31T21:37:29.913Z,2.33
2018-01-31T21:39:57.443Z,1.80
2018-01-31T21:42:24.959Z,1.90
2018-01-31T21:44:52.445Z,3.20
2018-01-31T21:47:19.971Z,2.30
2018-01-31T21:49:47.530Z,2.00
2018-01-31T21:52:21.539Z,4.03
2018-01-31T21:54:49.052Z,3.63
2018-01-31T21:57:16.609Z,2.10
2018-01-31T21:59:44.103Z,1.90
2018-01-31T22:02:11.585Z,1.83
2018-01-31T22:04:39.119Z,2.20
2018-01-31T22:07:07.620Z,2.20
2018-01-31T22:09:35.134Z,1.83
2018-01-31T22:12:02.628Z,2.00
2018-01-31T22:14:30.234Z,1.80
2018-01-31T22:16:57.812Z,1.90
2018-01-31T22:19:25.293Z,1.60
2018-01-31T22:21:52.792Z,1.73
2018-01-31T22:24:20.344Z,1.80
2018-01-31T22:26:47.864Z,2.10
2018-01-31T22:29:15.357Z,1.80
2018-01-31T22:31:42.865Z,1.90
2018-01-31T22:34:10.506Z,2.10
2018-01-31T22:36:38.727Z,1.50
2018-01-31T22:39:06.341Z,1.80
2018-01-31T22:41:33.851Z,1.57
2018-01-31T22:44:01.348Z,1.87
2018-01-31T22:46:28.896Z,3.77
2018-01-31T22:48:56.432Z,2.00
2018-01-31T22:51:23.924Z,1.90
2018-01-31T22:53:51.446Z,2.13
2018-01-31T22:56:18.988Z,2.07
2018-01-31T22:58:46.540Z,1.93
